sensor_id;sensor_type;location;lat;lon;timestamp;P1;durP1;ratioP1;P2;durP2;ratioP2
25249;SDS011;13201;51.148;13.738;2023-08-24T00:00:11;6.07;;;3.30;;
25249;SDS011;13201;51.148;13.738;2023-08-24T00:02:38;8.93;;;3.30;;
25249;SDS011;13201;51.148;13.738;2023-08-24T00:05:03;11.13;;;3.13;;
25249;SDS011;13201;51.148;13.738;2023-08-24T00:09:57;4.78;;;3.30;;
25249;SDS011;13201;51.148;13.738;2023-08-24T00:12:23;4.70;;;2.90;;
25249;SDS011;13201;51.148;13.738;2023-08-24T00:14:49;5.32;;;3.03;;
25249;SDS011;13201;51.148;13.738;2023-08-24T00:17:14;5.05;;;3.10;;
25249;SDS011;13201;51.148;13.738;2023-08-24T00:19:40;3.33;;;3.03;;
25249;SDS011;13201;51.148;13.738;2023-08-24T00:22:06;4.68;;;3.05;;
25249;SDS011;13201;51.148;13.738;2023-08-24T00:24:31;3.78;;;3.10;;
25249;SDS011;13201;51.148;13.738;2023-08-24T00:26:57;6.82;;;3.03;;
25249;SDS011;13201;51.148;13.738;2023-08-24T00:29:23;6.13;;;3.03;;
25249;SDS011;13201;51.148;13.738;2023-08-24T00:31:48;7.45;;;3.28;;
25249;SDS011;13201;51.148;13.738;2023-08-24T00:34:14;5.10;;;2.97;;
25249;SDS011;13201;51.148;13.738;2023-08-24T00:36:39;6.85;;;3.40;;
25249;SDS011;13201;51.148;13.738;2023-08-24T00:39:05;6.10;;;3.05;;
25249;SDS011;13201;51.148;13.738;2023-08-24T00:41:31;5.50;;;3.58;;
25249;SDS011;13201;51.148;13.738;2023-08-24T00:43:57;4.75;;;3.22;;
25249;SDS011;13201;51.148;13.738;2023-08-24T00:46:23;5.90;;;3.33;;
25249;SDS011;13201;51.148;13.738;2023-08-24T00:48:52;6.15;;;3.83;;
25249;SDS011;13201;51.148;13.738;2023-08-24T00:51:21;5.22;;;3.20;;
25249;SDS011;13201;51.148;13.738;2023-08-24T00:53:48;5.38;;;3.78;;
25249;SDS011;13201;51.148;13.738;2023-08-24T00:56:14;3.83;;;3.30;;
25249;SDS011;13201;51.148;13.738;2023-08-24T00:58:40;7.73;;;3.40;;
25249;SDS011;13201;51.148;13.738;2023-08-24T01:01:06;4.87;;;3.07;;
25249;SDS011;13201;51.148;13.738;2023-08-24T01:03:32;4.95;;;3.13;;
25249;SDS011;13201;51.148;13.738;2023-08-24T01:29:12;4.35;;;3.80;;
25249;SDS011;13201;51.148;13.738;2023-08-24T01:31:38;6.80;;;4.07;;
25249;SDS011;13201;51.148;13.738;2023-08-24T01:34:04;7.68;;;4.28;;
25249;SDS011;13201;51.148;13.738;2023-08-24T01:36:29;7.97;;;4.20;;
25249;SDS011;13201;51.148;13.738;2023-08-24T01:39:17;7.20;;;4.40;;
25249;SDS011;13201;51.148;13.738;2023-08-24T01:41:50;5.78;;;4.13;;
25249;SDS011;13201;51.148;13.738;2023-08-24T01:44:20;4.68;;;3.80;;
25249;SDS011;13201;51.148;13.738;2023-08-24T01:46:48;6.32;;;4.00;;
25249;SDS011;13201;51.148;13.738;2023-08-24T01:49:17;5.75;;;4.32;;
25249;SDS011;13201;51.148;13.738;2023-08-24T01:51:43;10.98;;;4.20;;
25249;SDS011;13201;51.148;13.738;2023-08-24T01:54:11;6.03;;;4.10;;
25249;SDS011;13201;51.148;13.738;2023-08-24T01:59:03;5.73;;;3.90;;
25249;SDS011;13201;51.148;13.738;2023-08-24T02:01:28;4.65;;;3.90;;
25249;SDS011;13201;51.148;13.738;2023-08-24T02:03:54;4.53;;;4.05;;
25249;SDS011;13201;51.148;13.738;2023-08-24T02:06:20;10.87;;;4.23;;
25249;SDS011;13201;51.148;13.738;2023-08-24T02:08:46;7.35;;;4.57;;
25249;SDS011;13201;51.148;13.738;2023-08-24T02:11:12;6.93;;;4.20;;
25249;SDS011;13201;51.148;13.738;2023-08-24T02:13:38;12.25;;;5.88;;
25249;SDS011;13201;51.148;13.738;2023-08-24T02:16:07;7.75;;;4.38;;
25249;SDS011;13201;51.148;13.738;2023-08-24T02:18:37;5.50;;;3.95;;
25249;SDS011;13201;51.148;13.738;2023-08-24T02:21:09;5.32;;;4.28;;
25249;SDS011;13201;51.148;13.738;2023-08-24T02:23:37;7.53;;;4.65;;
25249;SDS011;13201;51.148;13.738;2023-08-24T02:26:03;6.07;;;4.30;;
25249;SDS011;13201;51.148;13.738;2023-08-24T02:28:29;5.80;;;4.68;;
25249;SDS011;13201;51.148;13.738;2023-08-24T02:30:59;5.78;;;4.43;;
25249;SDS011;13201;51.148;13.738;2023-08-24T02:33:26;11.02;;;4.65;;
25249;SDS011;13201;51.148;13.738;2023-08-24T02:35:51;4.72;;;4.28;;
25249;SDS011;13201;51.148;13.738;2023-08-24T02:38:17;11.10;;;4.38;;
25249;SDS011;13201;51.148;13.738;2023-08-24T02:40:43;6.63;;;4.50;;
25249;SDS011;13201;51.148;13.738;2023-08-24T02:43:08;9.20;;;4.78;;
25249;SDS011;13201;51.148;13.738;2023-08-24T02:45:34;7.10;;;4.30;;
25249;SDS011;13201;51.148;13.738;2023-08-24T02:47:59;7.00;;;4.90;;
25249;SDS011;13201;51.148;13.738;2023-08-24T02:50:26;6.53;;;4.95;;
25249;SDS011;13201;51.148;13.738;2023-08-24T02:52:51;5.82;;;4.38;;
25249;SDS011;13201;51.148;13.738;2023-08-24T02:55:17;7.82;;;4.40;;
25249;SDS011;13201;51.148;13.738;2023-08-24T02:57:43;7.53;;;5.13;;
25249;SDS011;13201;51.148;13.738;2023-08-24T03:00:08;11.52;;;5.28;;
25249;SDS011;13201;51.148;13.738;2023-08-24T03:02:35;8.90;;;5.57;;
25249;SDS011;13201;51.148;13.738;2023-08-24T03:05:01;9.40;;;4.97;;
25249;SDS011;13201;51.148;13.738;2023-08-24T03:07:27;9.50;;;4.70;;
25249;SDS011;13201;51.148;13.738;2023-08-24T03:09:53;5.80;;;4.90;;
25249;SDS011;13201;51.148;13.738;2023-08-24T03:12:19;10.18;;;5.25;;
25249;SDS011;13201;51.148;13.738;2023-08-24T03:14:44;9.02;;;5.20;;
25249;SDS011;13201;51.148;13.738;2023-08-24T03:17:10;8.60;;;5.22;;
25249;SDS011;13201;51.148;13.738;2023-08-24T03:19:36;9.65;;;5.22;;
25249;SDS011;13201;51.148;13.738;2023-08-24T03:22:02;9.10;;;5.20;;
25249;SDS011;13201;51.148;13.738;2023-08-24T03:24:27;6.30;;;5.30;;
25249;SDS011;13201;51.148;13.738;2023-08-24T03:26:53;6.03;;;5.00;;
25249;SDS011;13201;51.148;13.738;2023-08-24T03:29:19;9.85;;;5.47;;
25249;SDS011;13201;51.148;13.738;2023-08-24T03:31:45;6.70;;;4.90;;
25249;SDS011;13201;51.148;13.738;2023-08-24T03:34:10;8.52;;;5.15;;
25249;SDS011;13201;51.148;13.738;2023-08-24T03:36:36;6.45;;;5.20;;
25249;SDS011;13201;51.148;13.738;2023-08-24T03:39:03;12.82;;;5.32;;
25249;SDS011;13201;51.148;13.738;2023-08-24T03:41:28;6.68;;;4.70;;
25249;SDS011;13201;51.148;13.738;2023-08-24T03:43:54;13.75;;;5.65;;
25249;SDS011;13201;51.148;13.738;2023-08-24T03:46:20;7.72;;;5.10;;
25249;SDS011;13201;51.148;13.738;2023-08-24T03:48:45;11.68;;;5.20;;
25249;SDS011;13201;51.148;13.738;2023-08-24T03:51:11;6.90;;;5.13;;
25249;SDS011;13201;51.148;13.738;2023-08-24T03:53:36;8.10;;;5.38;;
25249;SDS011;13201;51.148;13.738;2023-08-24T03:56:03;5.78;;;4.68;;
25249;SDS011;13201;51.148;13.738;2023-08-24T03:58:29;10.38;;;5.53;;
25249;SDS011;13201;51.148;13.738;2023-08-24T04:00:54;8.95;;;4.82;;
25249;SDS011;13201;51.148;13.738;2023-08-24T04:03:20;7.20;;;4.97;;
25249;SDS011;13201;51.148;13.738;2023-08-24T04:05:46;10.73;;;5.87;;
25249;SDS011;13201;51.148;13.738;2023-08-24T04:08:12;6.68;;;5.13;;
25249;SDS011;13201;51.148;13.738;2023-08-24T04:10:38;28.30;;;5.78;;
25249;SDS011;13201;51.148;13.738;2023-08-24T04:13:03;26.73;;;5.65;;
25249;SDS011;13201;51.148;13.738;2023-08-24T04:15:29;19.13;;;5.97;;
25249;SDS011;13201;51.148;13.738;2023-08-24T04:17:55;12.77;;;5.75;;
25249;SDS011;13201;51.148;13.738;2023-08-24T04:20:21;11.80;;;5.40;;
25249;SDS011;13201;51.148;13.738;2023-08-24T04:22:47;10.45;;;5.88;;
25249;SDS011;13201;51.148;13.738;2023-08-24T04:25:13;7.72;;;5.22;;
25249;SDS011;13201;51.148;13.738;2023-08-24T04:27:38;6.72;;;5.03;;
25249;SDS011;13201;51.148;13.738;2023-08-24T04:30:04;12.43;;;5.40;;
25249;SDS011;13201;51.148;13.738;2023-08-24T04:32:31;5.85;;;5.20;;
25249;SDS011;13201;51.148;13.738;2023-08-24T04:37:23;8.33;;;5.30;;
25249;SDS011;13201;51.148;13.738;2023-08-24T04:39:49;8.18;;;5.30;;
25249;SDS011;13201;51.148;13.738;2023-08-24T04:42:14;8.73;;;5.70;;
25249;SDS011;13201;51.148;13.738;2023-08-24T04:44:40;6.57;;;5.18;;
25249;SDS011;13201;51.148;13.738;2023-08-24T04:47:06;8.70;;;5.53;;
25249;SDS011;13201;51.148;13.738;2023-08-24T04:49:32;11.95;;;5.45;;
25249;SDS011;13201;51.148;13.738;2023-08-24T04:51:58;9.85;;;5.60;;
25249;SDS011;13201;51.148;13.738;2023-08-24T04:54:23;16.73;;;6.47;;
25249;SDS011;13201;51.148;13.738;2023-08-24T04:56:49;51.42;;;7.28;;
25249;SDS011;13201;51.148;13.738;2023-08-24T04:59:15;70.30;;;6.78;;
25249;SDS011;13201;51.148;13.738;2023-08-24T05:01:40;50.30;;;7.35;;
25249;SDS011;13201;51.148;13.738;2023-08-24T05:04:06;19.63;;;6.45;;
25249;SDS011;13201;51.148;13.738;2023-08-24T05:06:32;11.05;;;5.93;;
25249;SDS011;13201;51.148;13.738;2023-08-24T05:08:57;9.50;;;5.38;;
25249;SDS011;13201;51.148;13.738;2023-08-24T05:11:23;7.05;;;5.45;;
25249;SDS011;13201;51.148;13.738;2023-08-24T05:13:51;8.48;;;5.35;;
25249;SDS011;13201;51.148;13.738;2023-08-24T05:16:17;9.07;;;5.53;;
25249;SDS011;13201;51.148;13.738;2023-08-24T05:18:43;6.95;;;5.47;;
25249;SDS011;13201;51.148;13.738;2023-08-24T05:21:09;8.40;;;5.28;;
25249;SDS011;13201;51.148;13.738;2023-08-24T05:23:34;11.00;;;5.32;;
25249;SDS011;13201;51.148;13.738;2023-08-24T05:26:01;6.35;;;5.45;;
25249;SDS011;13201;51.148;13.738;2023-08-24T05:30:54;8.27;;;5.80;;
25249;SDS011;13201;51.148;13.738;2023-08-24T05:33:20;10.77;;;6.03;;
25249;SDS011;13201;51.148;13.738;2023-08-24T05:35:46;10.65;;;6.15;;
25249;SDS011;13201;51.148;13.738;2023-08-24T05:38:13;16.70;;;6.97;;
25249;SDS011;13201;51.148;13.738;2023-08-24T05:40:39;25.90;;;6.78;;
25249;SDS011;13201;51.148;13.738;2023-08-24T05:43:07;25.63;;;6.50;;
25249;SDS011;13201;51.148;13.738;2023-08-24T05:45:33;16.58;;;6.40;;
25249;SDS011;13201;51.148;13.738;2023-08-24T05:47:59;12.90;;;6.10;;
25249;SDS011;13201;51.148;13.738;2023-08-24T05:50:25;11.70;;;6.20;;
25249;SDS011;13201;51.148;13.738;2023-08-24T05:52:50;12.10;;;6.32;;
25249;SDS011;13201;51.148;13.738;2023-08-24T05:55:16;7.97;;;5.75;;
25249;SDS011;13201;51.148;13.738;2023-08-24T05:57:42;8.32;;;5.82;;
25249;SDS011;13201;51.148;13.738;2023-08-24T06:00:08;7.60;;;5.63;;
25249;SDS011;13201;51.148;13.738;2023-08-24T06:02:37;10.40;;;6.03;;
25249;SDS011;13201;51.148;13.738;2023-08-24T06:05:04;7.47;;;5.85;;
25249;SDS011;13201;51.148;13.738;2023-08-24T06:07:31;8.98;;;6.05;;
25249;SDS011;13201;51.148;13.738;2023-08-24T06:09:57;6.35;;;5.63;;
25249;SDS011;13201;51.148;13.738;2023-08-24T06:12:23;17.30;;;5.85;;
25249;SDS011;13201;51.148;13.738;2023-08-24T06:14:49;21.17;;;6.22;;
25249;SDS011;13201;51.148;13.738;2023-08-24T06:17:14;18.90;;;5.45;;
25249;SDS011;13201;51.148;13.738;2023-08-24T06:19:40;9.43;;;5.72;;
25249;SDS011;13201;51.148;13.738;2023-08-24T06:22:06;8.48;;;5.93;;
25249;SDS011;13201;51.148;13.738;2023-08-24T06:24:32;10.30;;;5.70;;
25249;SDS011;13201;51.148;13.738;2023-08-24T06:26:58;15.38;;;6.30;;
25249;SDS011;13201;51.148;13.738;2023-08-24T06:29:24;10.82;;;5.93;;
25249;SDS011;13201;51.148;13.738;2023-08-24T06:31:49;10.20;;;5.30;;
25249;SDS011;13201;51.148;13.738;2023-08-24T06:34:15;9.85;;;5.40;;
25249;SDS011;13201;51.148;13.738;2023-08-24T06:36:41;9.35;;;5.18;;
25249;SDS011;13201;51.148;13.738;2023-08-24T06:39:06;18.85;;;5.85;;
25249;SDS011;13201;51.148;13.738;2023-08-24T06:41:36;8.05;;;5.30;;
25249;SDS011;13201;51.148;13.738;2023-08-24T06:44:01;10.38;;;5.80;;
25249;SDS011;13201;51.148;13.738;2023-08-24T06:46:29;13.38;;;5.75;;
25249;SDS011;13201;51.148;13.738;2023-08-24T06:48:54;13.90;;;5.13;;
25249;SDS011;13201;51.148;13.738;2023-08-24T06:51:20;18.67;;;5.65;;
25249;SDS011;13201;51.148;13.738;2023-08-24T06:53:46;17.90;;;5.72;;
25249;SDS011;13201;51.148;13.738;2023-08-24T06:56:13;7.20;;;5.32;;
25249;SDS011;13201;51.148;13.738;2023-08-24T06:58:40;8.18;;;5.45;;
25249;SDS011;13201;51.148;13.738;2023-08-24T07:01:06;6.93;;;4.80;;
25249;SDS011;13201;51.148;13.738;2023-08-24T07:03:32;139.03;;;10.93;;
25249;SDS011;13201;51.148;13.738;2023-08-24T07:05:58;28.38;;;6.68;;
25249;SDS011;13201;51.148;13.738;2023-08-24T07:08:24;10.07;;;5.20;;
25249;SDS011;13201;51.148;13.738;2023-08-24T07:10:50;9.95;;;5.22;;
25249;SDS011;13201;51.148;13.738;2023-08-24T07:13:16;5.85;;;4.35;;
25249;SDS011;13201;51.148;13.738;2023-08-24T07:15:41;10.30;;;5.22;;
25249;SDS011;13201;51.148;13.738;2023-08-24T07:18:07;17.27;;;5.40;;
25249;SDS011;13201;51.148;13.738;2023-08-24T07:20:34;8.38;;;4.78;;
25249;SDS011;13201;51.148;13.738;2023-08-24T07:23:00;19.07;;;5.60;;
25249;SDS011;13201;51.148;13.738;2023-08-24T07:25:26;12.83;;;6.00;;
25249;SDS011;13201;51.148;13.738;2023-08-24T07:27:55;11.52;;;5.15;;
25249;SDS011;13201;51.148;13.738;2023-08-24T07:30:27;12.10;;;5.30;;
25249;SDS011;13201;51.148;13.738;2023-08-24T07:32:53;16.90;;;6.13;;
25249;SDS011;13201;51.148;13.738;2023-08-24T07:35:19;9.80;;;5.45;;
25249;SDS011;13201;51.148;13.738;2023-08-24T07:37:48;9.63;;;5.60;;
25249;SDS011;13201;51.148;13.738;2023-08-24T07:40:14;21.33;;;6.40;;
25249;SDS011;13201;51.148;13.738;2023-08-24T07:42:47;21.63;;;6.50;;
25249;SDS011;13201;51.148;13.738;2023-08-24T07:45:16;9.80;;;5.93;;
25249;SDS011;13201;51.148;13.738;2023-08-24T07:47:42;11.70;;;5.30;;
25249;SDS011;13201;51.148;13.738;2023-08-24T07:50:08;15.00;;;5.45;;
25249;SDS011;13201;51.148;13.738;2023-08-24T07:57:29;19.27;;;5.78;;
25249;SDS011;13201;51.148;13.738;2023-08-24T07:59:54;28.60;;;6.20;;
25249;SDS011;13201;51.148;13.738;2023-08-24T08:02:20;8.93;;;4.68;;
25249;SDS011;13201;51.148;13.738;2023-08-24T08:04:46;9.35;;;4.10;;
25249;SDS011;13201;51.148;13.738;2023-08-24T08:07:11;9.63;;;4.60;;
25249;SDS011;13201;51.148;13.738;2023-08-24T08:09:37;31.10;;;5.57;;
25249;SDS011;13201;51.148;13.738;2023-08-24T08:12:03;5.38;;;4.00;;
25249;SDS011;13201;51.148;13.738;2023-08-24T08:14:29;6.83;;;3.43;;
25249;SDS011;13201;51.148;13.738;2023-08-24T08:16:58;4.33;;;3.20;;
25249;SDS011;13201;51.148;13.738;2023-08-24T08:19:24;10.38;;;3.50;;
25249;SDS011;13201;51.148;13.738;2023-08-24T08:21:53;8.75;;;3.35;;
25249;SDS011;13201;51.148;13.738;2023-08-24T08:24:19;9.70;;;3.40;;
25249;SDS011;13201;51.148;13.738;2023-08-24T08:26:44;12.50;;;5.20;;
25249;SDS011;13201;51.148;13.738;2023-08-24T08:29:10;25.00;;;4.30;;
25249;SDS011;13201;51.148;13.738;2023-08-24T08:31:36;10.57;;;4.50;;
25249;SDS011;13201;51.148;13.738;2023-08-24T08:34:02;7.93;;;3.67;;
25249;SDS011;13201;51.148;13.738;2023-08-24T08:36:29;21.35;;;3.90;;
25249;SDS011;13201;51.148;13.738;2023-08-24T08:38:57;10.88;;;3.47;;
25249;SDS011;13201;51.148;13.738;2023-08-24T08:41:23;5.97;;;3.33;;
25249;SDS011;13201;51.148;13.738;2023-08-24T08:43:52;6.97;;;3.00;;
25249;SDS011;13201;51.148;13.738;2023-08-24T08:46:18;8.52;;;2.95;;
25249;SDS011;13201;51.148;13.738;2023-08-24T08:48:47;5.28;;;2.60;;
25249;SDS011;13201;51.148;13.738;2023-08-24T08:51:15;4.53;;;2.50;;
25249;SDS011;13201;51.148;13.738;2023-08-24T08:53:42;3.88;;;2.42;;
25249;SDS011;13201;51.148;13.738;2023-08-24T08:56:08;7.53;;;2.72;;
25249;SDS011;13201;51.148;13.738;2023-08-24T08:58:34;6.47;;;2.90;;
25249;SDS011;13201;51.148;13.738;2023-08-24T09:03:31;6.22;;;2.83;;
25249;SDS011;13201;51.148;13.738;2023-08-24T09:06:00;5.15;;;2.88;;
25249;SDS011;13201;51.148;13.738;2023-08-24T09:08:26;6.22;;;2.85;;
25249;SDS011;13201;51.148;13.738;2023-08-24T09:10:53;5.27;;;3.13;;
25249;SDS011;13201;51.148;13.738;2023-08-24T09:13:20;6.28;;;2.58;;
25249;SDS011;13201;51.148;13.738;2023-08-24T09:15:46;6.20;;;3.17;;
25249;SDS011;13201;51.148;13.738;2023-08-24T09:18:11;6.55;;;2.70;;
25249;SDS011;13201;51.148;13.738;2023-08-24T09:20:37;8.05;;;3.10;;
25249;SDS011;13201;51.148;13.738;2023-08-24T09:23:03;6.57;;;3.00;;
25249;SDS011;13201;51.148;13.738;2023-08-24T09:25:29;5.82;;;2.65;;
25249;SDS011;13201;51.148;13.738;2023-08-24T09:27:58;6.67;;;3.03;;
25249;SDS011;13201;51.148;13.738;2023-08-24T09:30:31;9.00;;;3.05;;
25249;SDS011;13201;51.148;13.738;2023-08-24T09:33:15;5.53;;;2.95;;
25249;SDS011;13201;51.148;13.738;2023-08-24T09:35:41;4.47;;;2.80;;
25249;SDS011;13201;51.148;13.738;2023-08-24T09:38:19;8.77;;;2.97;;
25249;SDS011;13201;51.148;13.738;2023-08-24T09:40:53;5.68;;;2.50;;
25249;SDS011;13201;51.148;13.738;2023-08-24T09:43:20;5.68;;;2.80;;
25249;SDS011;13201;51.148;13.738;2023-08-24T09:45:55;6.80;;;2.72;;
25249;SDS011;13201;51.148;13.738;2023-08-24T09:48:21;5.05;;;2.70;;
25249;SDS011;13201;51.148;13.738;2023-08-24T09:50:49;5.10;;;2.70;;
25249;SDS011;13201;51.148;13.738;2023-08-24T09:53:22;6.25;;;2.80;;
25249;SDS011;13201;51.148;13.738;2023-08-24T09:55:50;3.17;;;2.30;;
25249;SDS011;13201;51.148;13.738;2023-08-24T09:58:25;9.77;;;2.83;;
25249;SDS011;13201;51.148;13.738;2023-08-24T10:00:52;4.95;;;2.47;;
25249;SDS011;13201;51.148;13.738;2023-08-24T10:03:19;4.05;;;2.80;;
25249;SDS011;13201;51.148;13.738;2023-08-24T10:05:53;5.10;;;2.78;;
25249;SDS011;13201;51.148;13.738;2023-08-24T10:08:22;5.93;;;2.75;;
25249;SDS011;13201;51.148;13.738;2023-08-24T10:10:52;5.70;;;2.92;;
25249;SDS011;13201;51.148;13.738;2023-08-24T10:13:22;3.55;;;2.47;;
25249;SDS011;13201;51.148;13.738;2023-08-24T10:16:06;4.47;;;2.20;;
25249;SDS011;13201;51.148;13.738;2023-08-24T10:18:35;7.43;;;2.50;;
25249;SDS011;13201;51.148;13.738;2023-08-24T10:21:02;5.63;;;2.38;;
25249;SDS011;13201;51.148;13.738;2023-08-24T10:23:29;4.00;;;2.47;;
25249;SDS011;13201;51.148;13.738;2023-08-24T10:25:55;6.38;;;2.58;;
25249;SDS011;13201;51.148;13.738;2023-08-24T10:28:22;6.03;;;2.43;;
25249;SDS011;13201;51.148;13.738;2023-08-24T10:30:50;6.00;;;2.90;;
25249;SDS011;13201;51.148;13.738;2023-08-24T10:33:17;4.95;;;3.03;;
25249;SDS011;13201;51.148;13.738;2023-08-24T10:35:44;4.88;;;2.83;;
25249;SDS011;13201;51.148;13.738;2023-08-24T10:38:24;4.55;;;2.72;;
25249;SDS011;13201;51.148;13.738;2023-08-24T10:40:55;4.47;;;2.55;;
25249;SDS011;13201;51.148;13.738;2023-08-24T10:43:29;7.78;;;3.00;;
25249;SDS011;13201;51.148;13.738;2023-08-24T10:46:01;7.43;;;2.67;;
25249;SDS011;13201;51.148;13.738;2023-08-24T10:48:29;7.25;;;2.63;;
25249;SDS011;13201;51.148;13.738;2023-08-24T10:54:06;5.47;;;2.95;;
25249;SDS011;13201;51.148;13.738;2023-08-24T10:56:38;4.57;;;2.60;;
25249;SDS011;13201;51.148;13.738;2023-08-24T11:04:17;3.83;;;2.40;;
25249;SDS011;13201;51.148;13.738;2023-08-24T11:06:53;5.57;;;2.40;;
25249;SDS011;13201;51.148;13.738;2023-08-24T11:09:20;7.53;;;2.80;;
25249;SDS011;13201;51.148;13.738;2023-08-24T11:11:57;6.45;;;2.45;;
25249;SDS011;13201;51.148;13.738;2023-08-24T11:14:28;3.53;;;2.67;;
25249;SDS011;13201;51.148;13.738;2023-08-24T11:16:59;6.03;;;2.95;;
25249;SDS011;13201;51.148;13.738;2023-08-24T11:19:25;4.45;;;2.63;;
25249;SDS011;13201;51.148;13.738;2023-08-24T11:21:51;9.07;;;2.60;;
25249;SDS011;13201;51.148;13.738;2023-08-24T11:24:16;10.53;;;2.50;;
25249;SDS011;13201;51.148;13.738;2023-08-24T11:26:49;6.10;;;2.53;;
25249;SDS011;13201;51.148;13.738;2023-08-24T11:29:15;5.55;;;2.47;;
25249;SDS011;13201;51.148;13.738;2023-08-24T11:31:43;3.75;;;2.50;;
25249;SDS011;13201;51.148;13.738;2023-08-24T11:34:10;6.77;;;2.60;;
25249;SDS011;13201;51.148;13.738;2023-08-24T11:36:43;3.83;;;2.38;;
25249;SDS011;13201;51.148;13.738;2023-08-24T11:39:14;5.05;;;2.60;;
25249;SDS011;13201;51.148;13.738;2023-08-24T11:42:06;6.60;;;2.80;;
25249;SDS011;13201;51.148;13.738;2023-08-24T11:44:49;9.27;;;3.00;;
25249;SDS011;13201;51.148;13.738;2023-08-24T11:47:15;4.45;;;2.63;;
25249;SDS011;13201;51.148;13.738;2023-08-24T11:49:41;8.65;;;2.72;;
25249;SDS011;13201;51.148;13.738;2023-08-24T11:52:08;5.55;;;2.50;;
25249;SDS011;13201;51.148;13.738;2023-08-24T11:54:34;4.43;;;2.58;;
25249;SDS011;13201;51.148;13.738;2023-08-24T11:57:05;4.80;;;2.65;;
25249;SDS011;13201;51.148;13.738;2023-08-24T11:59:31;4.63;;;2.65;;
25249;SDS011;13201;51.148;13.738;2023-08-24T12:01:57;6.13;;;3.00;;
25249;SDS011;13201;51.148;13.738;2023-08-24T12:04:23;3.85;;;2.72;;
25249;SDS011;13201;51.148;13.738;2023-08-24T12:06:49;6.27;;;2.60;;
25249;SDS011;13201;51.148;13.738;2023-08-24T12:09:15;3.50;;;2.90;;
25249;SDS011;13201;51.148;13.738;2023-08-24T12:11:41;7.33;;;2.83;;
25249;SDS011;13201;51.148;13.738;2023-08-24T12:14:07;3.70;;;3.03;;
25249;SDS011;13201;51.148;13.738;2023-08-24T12:16:35;3.92;;;2.58;;
25249;SDS011;13201;51.148;13.738;2023-08-24T12:19:01;4.70;;;2.60;;
25249;SDS011;13201;51.148;13.738;2023-08-24T12:21:30;4.75;;;2.63;;
25249;SDS011;13201;51.148;13.738;2023-08-24T12:26:32;4.75;;;2.90;;
25249;SDS011;13201;51.148;13.738;2023-08-24T12:31:31;9.73;;;2.55;;
25249;SDS011;13201;51.148;13.738;2023-08-24T12:36:28;4.60;;;2.60;;
25249;SDS011;13201;51.148;13.738;2023-08-24T12:38:54;3.65;;;2.63;;
25249;SDS011;13201;51.148;13.738;2023-08-24T12:41:20;4.87;;;2.50;;
25249;SDS011;13201;51.148;13.738;2023-08-24T12:43:46;4.47;;;2.55;;
25249;SDS011;13201;51.148;13.738;2023-08-24T12:46:12;4.47;;;2.40;;
25249;SDS011;13201;51.148;13.738;2023-08-24T12:48:38;4.97;;;2.90;;
25249;SDS011;13201;51.148;13.738;2023-08-24T12:51:03;4.70;;;2.33;;
25249;SDS011;13201;51.148;13.738;2023-08-24T12:53:29;3.57;;;2.53;;
25249;SDS011;13201;51.148;13.738;2023-08-24T12:55:55;4.67;;;2.57;;
25249;SDS011;13201;51.148;13.738;2023-08-24T12:58:21;3.60;;;2.60;;
25249;SDS011;13201;51.148;13.738;2023-08-24T13:00:46;16.90;;;3.00;;
25249;SDS011;13201;51.148;13.738;2023-08-24T13:03:13;9.30;;;2.70;;
25249;SDS011;13201;51.148;13.738;2023-08-24T13:05:39;3.67;;;2.77;;
25249;SDS011;13201;51.148;13.738;2023-08-24T13:08:04;4.10;;;2.47;;
25249;SDS011;13201;51.148;13.738;2023-08-24T13:10:30;8.50;;;2.87;;
25249;SDS011;13201;51.148;13.738;2023-08-24T13:12:56;4.07;;;2.40;;
25249;SDS011;13201;51.148;13.738;2023-08-24T13:15:22;5.13;;;2.63;;
25249;SDS011;13201;51.148;13.738;2023-08-24T13:17:48;5.40;;;2.40;;
25249;SDS011;13201;51.148;13.738;2023-08-24T13:20:13;4.23;;;2.77;;
25249;SDS011;13201;51.148;13.738;2023-08-24T13:22:39;3.60;;;2.50;;
25249;SDS011;13201;51.148;13.738;2023-08-24T13:25:05;6.47;;;2.80;;
25249;SDS011;13201;51.148;13.738;2023-08-24T13:27:31;13.68;;;2.85;;
25249;SDS011;13201;51.148;13.738;2023-08-24T13:29:59;7.20;;;2.70;;
25249;SDS011;13201;51.148;13.738;2023-08-24T13:32:26;6.97;;;3.08;;
25249;SDS011;13201;51.148;13.738;2023-08-24T13:34:51;4.57;;;2.72;;
25249;SDS011;13201;51.148;13.738;2023-08-24T13:37:17;6.97;;;2.70;;
25249;SDS011;13201;51.148;13.738;2023-08-24T13:39:43;5.63;;;2.95;;
25249;SDS011;13201;51.148;13.738;2023-08-24T13:42:09;4.53;;;2.60;;
25249;SDS011;13201;51.148;13.738;2023-08-24T13:44:35;3.77;;;2.70;;
25249;SDS011;13201;51.148;13.738;2023-08-24T13:47:00;3.33;;;2.80;;
25249;SDS011;13201;51.148;13.738;2023-08-24T13:49:26;12.67;;;8.90;;
25249;SDS011;13201;51.148;13.738;2023-08-24T13:51:52;4.83;;;2.80;;
25249;SDS011;13201;51.148;13.738;2023-08-24T13:54:18;4.53;;;2.60;;
25249;SDS011;13201;51.148;13.738;2023-08-24T13:56:45;5.78;;;2.70;;
25249;SDS011;13201;51.148;13.738;2023-08-24T13:59:12;4.32;;;2.63;;
25249;SDS011;13201;51.148;13.738;2023-08-24T14:04:04;4.30;;;2.90;;
25249;SDS011;13201;51.148;13.738;2023-08-24T14:06:30;3.22;;;2.50;;
25249;SDS011;13201;51.148;13.738;2023-08-24T14:09:04;4.78;;;2.88;;
25249;SDS011;13201;51.148;13.738;2023-08-24T14:11:31;4.30;;;2.80;;
25249;SDS011;13201;51.148;13.738;2023-08-24T14:13:57;3.92;;;2.90;;
25249;SDS011;13201;51.148;13.738;2023-08-24T14:16:24;5.25;;;2.70;;
25249;SDS011;13201;51.148;13.738;2023-08-24T14:18:51;5.82;;;2.90;;
25249;SDS011;13201;51.148;13.738;2023-08-24T14:21:17;6.05;;;2.38;;
25249;SDS011;13201;51.148;13.738;2023-08-24T14:23:44;4.70;;;2.80;;
25249;SDS011;13201;51.148;13.738;2023-08-24T14:26:09;7.23;;;3.20;;
25249;SDS011;13201;51.148;13.738;2023-08-24T14:28:51;5.03;;;2.73;;
25249;SDS011;13201;51.148;13.738;2023-08-24T14:31:19;4.55;;;2.67;;
25249;SDS011;13201;51.148;13.738;2023-08-24T14:36:10;4.93;;;2.65;;
25249;SDS011;13201;51.148;13.738;2023-08-24T14:38:40;3.78;;;2.63;;
25249;SDS011;13201;51.148;13.738;2023-08-24T14:41:07;15.45;;;8.82;;
25249;SDS011;13201;51.148;13.738;2023-08-24T14:43:33;8.82;;;5.15;;
25249;SDS011;13201;51.148;13.738;2023-08-24T14:45:59;5.10;;;3.73;;
25249;SDS011;13201;51.148;13.738;2023-08-24T14:48:25;4.97;;;2.80;;
25249;SDS011;13201;51.148;13.738;2023-08-24T14:50:50;4.40;;;2.60;;
25249;SDS011;13201;51.148;13.738;2023-08-24T14:53:16;8.83;;;2.87;;
25249;SDS011;13201;51.148;13.738;2023-08-24T14:55:42;3.90;;;2.63;;
25249;SDS011;13201;51.148;13.738;2023-08-24T14:58:07;4.97;;;2.83;;
25249;SDS011;13201;51.148;13.738;2023-08-24T15:00:33;4.10;;;3.08;;
25249;SDS011;13201;51.148;13.738;2023-08-24T15:02:59;5.22;;;2.80;;
25249;SDS011;13201;51.148;13.738;2023-08-24T15:07:51;7.30;;;3.08;;
25249;SDS011;13201;51.148;13.738;2023-08-24T15:10:17;5.50;;;2.97;;
25249;SDS011;13201;51.148;13.738;2023-08-24T15:12:44;8.02;;;3.60;;
25249;SDS011;13201;51.148;13.738;2023-08-24T15:15:13;6.97;;;3.80;;
25249;SDS011;13201;51.148;13.738;2023-08-24T15:17:44;4.25;;;2.63;;
25249;SDS011;13201;51.148;13.738;2023-08-24T15:20:10;5.07;;;2.60;;
25249;SDS011;13201;51.148;13.738;2023-08-24T15:22:39;5.05;;;3.00;;
25249;SDS011;13201;51.148;13.738;2023-08-24T15:25:05;5.00;;;3.10;;
25249;SDS011;13201;51.148;13.738;2023-08-24T15:27:31;6.97;;;3.13;;
25249;SDS011;13201;51.148;13.738;2023-08-24T15:29:57;4.88;;;3.28;;
25249;SDS011;13201;51.148;13.738;2023-08-24T15:32:23;7.60;;;3.47;;